Time;durP1;ratioP1;P1;durP2;ratioP2;P2;SDS_P1;SDS_P2;PMS_P1;PMS_P2;Temp;Humidity;BMP_temperature;BMP_pressure;BME280_temperature;BME280_humidity;BME280_pressure;Samples;Min_cycle;Max_cycle;Signal;HPM_P1;HPM_P2
2023/06/25 00:00:17;;;;;;;10.57;8.68;;;16.90;99.90;;;;;;5045804;28;20277;-75
2023/06/25 00:02:42;;;;;;;8.50;7.63;;;16.90;99.90;;;;;;5044934;28;20178;-75
2023/06/25 00:05:08;;;;;;;8.10;7.40;;;16.90;1.00;;;;;;5045910;28;20185;-75
2023/06/25 00:07:34;;;;;;;9.57;8.57;;;16.70;1.00;;;;;;5045293;28;20256;-77
2023/06/25 00:10:00;;;;;;;8.07;7.47;;;16.70;1.00;;;;;;5045700;28;20245;-74
2023/06/25 00:12:25;;;;;;;8.63;7.72;;;16.50;1.00;;;;;;5045346;28;20186;-75
2023/06/25 00:14:51;;;;;;;9.85;8.95;;;16.50;99.90;;;;;;5044813;28;20650;-77
2023/06/25 00:17:21;;;;;;;9.20;8.40;;;16.30;99.90;;;;;;5045094;28;21040;-75
2023/06/25 00:19:47;;;;;;;10.90;9.90;;;16.10;1.00;;;;;;5045433;28;20200;-75
2023/06/25 00:22:12;;;;;;;10.60;9.55;;;16.10;99.90;;;;;;5045109;28;20549;-75
2023/06/25 00:24:39;;;;;;;10.60;9.70;;;16.00;1.00;;;;;;5044825;28;20601;-75
2023/06/25 00:27:06;;;;;;;10.60;9.70;;;15.90;1.00;;;;;;5045220;28;20218;-74
2023/06/25 00:29:33;;;;;;;11.20;10.13;;;15.90;1.00;;;;;;5044774;28;20178;-74
2023/06/25 00:31:59;;;;;;;11.07;10.07;;;15.90;1.00;;;;;;5045064;28;20189;-75
2023/06/25 00:34:25;;;;;;;11.10;10.10;;;15.90;1.00;;;;;;5044573;28;20186;-75
2023/06/25 00:36:53;;;;;;;10.52;9.52;;;15.90;99.90;;;;;;5045258;28;20210;-75
2023/06/25 00:39:19;;;;;;;11.35;10.27;;;15.90;99.90;;;;;;5045222;28;20693;-75
2023/06/25 00:41:45;;;;;;;11.23;10.10;;;16.00;99.90;;;;;;5045153;28;20186;-75
2023/06/25 00:44:10;;;;;;;9.88;9.07;;;16.10;1.00;;;;;;5044723;28;20617;-75
2023/06/25 00:46:36;;;;;;;10.20;9.30;;;16.30;1.00;;;;;;5044939;28;20206;-74
2023/06/25 00:49:05;;;;;;;9.85;9.02;;;16.40;1.00;;;;;;5045269;28;20189;-76
2023/06/25 00:51:34;;;;;;;10.10;9.18;;;16.50;1.00;;;;;;5045234;28;20632;-75
2023/06/25 00:54:00;;;;;;;10.05;9.13;;;16.60;1.00;;;;;;5044701;28;20273;-76
2023/06/25 00:56:29;;;;;;;9.98;8.95;;;16.60;1.00;;;;;;5044989;28;20292;-74
2023/06/25 00:59:03;;;;;;;10.38;8.50;;;16.60;99.90;;;;;;5045242;28;20186;-75
2023/06/25 01:01:41;;;;;;;8.95;8.25;;;16.50;39.20;;;;;;5044831;28;20209;-75
2023/06/25 01:04:33;;;;;;;9.55;8.68;;;16.50;33.00;;;;;;5044550;28;20205;-75
2023/06/25 01:07:01;;;;;;;9.30;8.43;;;16.50;1.00;;;;;;5044209;28;20616;-75
2023/06/25 01:09:29;;;;;;;10.30;8.82;;;16.50;99.90;;;;;;5044493;28;20178;-75
2023/06/25 01:12:04;;;;;;;9.40;8.57;;;16.50;10.80;;;;;;5042994;28;20190;-76
2023/06/25 01:14:32;;;;;;;8.30;7.57;;;16.50;1.00;;;;;;5043865;28;20206;-75
2023/06/25 01:16:59;;;;;;;9.23;8.27;;;16.40;1.00;;;;;;5044066;28;20296;-75
2023/06/25 01:19:29;;;;;;;8.82;7.93;;;16.50;7.80;;;;;;5043760;28;20220;-76
2023/06/25 01:22:04;;;;;;;9.13;8.23;;;16.40;1.00;;;;;;5043739;28;20619;-74
2023/06/25 01:24:34;;;;;;;9.40;8.35;;;16.40;99.90;;;;;;5043759;28;20213;-74
2023/06/25 01:27:00;;;;;;;9.18;8.40;;;16.40;99.90;;;;;;5044487;28;20214;-75
2023/06/25 01:29:27;;;;;;;9.52;8.48;;;16.40;99.90;;;;;;5044580;28;20214;-75
2023/06/25 01:31:53;;;;;;;9.63;8.68;;;16.40;99.90;;;;;;5044695;28;20230;-75
2023/06/25 01:34:20;;;;;;;9.52;8.70;;;16.30;99.90;;;;;;5043948;28;20252;-75
2023/06/25 01:36:50;;;;;;;10.10;8.80;;;16.40;99.90;;;;;;5044113;28;20197;-75
2023/06/25 01:39:20;;;;;;;10.25;9.13;;;16.60;1.00;;;;;;5044221;28;20194;-75
2023/06/25 01:41:47;;;;;;;10.30;9.13;;;16.50;94.30;;;;;;5046219;28;20717;-74
2023/06/25 01:44:15;;;;;;;10.40;9.05;;;16.30;99.90;;;;;;5047675;28;20657;-75
2023/06/25 01:46:41;;;;;;;9.88;8.65;;;16.30;99.90;;;;;;5048118;28;20651;-74
2023/06/25 01:49:07;;;;;;;10.45;8.57;;;16.20;62.70;;;;;;5047916;28;20253;-75
2023/06/25 01:51:32;;;;;;;10.38;8.90;;;16.10;99.90;;;;;;5047915;28;20727;-75
2023/06/25 01:53:59;;;;;;;10.00;9.00;;;16.10;1.00;;;;;;5047272;28;20186;-75
2023/06/25 01:56:25;;;;;;;11.38;8.63;;;16.20;99.90;;;;;;5048078;28;20903;-75
2023/06/25 01:58:54;;;;;;;10.20;8.38;;;16.00;99.90;;;;;;5047877;28;20178;-74
2023/06/25 02:01:20;;;;;;;10.43;8.70;;;16.00;99.90;;;;;;5047809;28;20637;-74
2023/06/25 02:03:46;;;;;;;12.68;9.35;;;16.00;90.90;;;;;;5047145;28;20285;-75
2023/06/25 02:06:11;;;;;;;9.50;8.38;;;16.00;99.90;;;;;;5047946;28;20221;-74
2023/06/25 02:08:37;;;;;;;10.07;8.65;;;16.00;99.90;;;;;;5047837;28;20202;-75
2023/06/25 02:11:02;;;;;;;9.43;8.38;;;16.00;99.90;;;;;;5048197;28;20194;-74
2023/06/25 02:13:28;;;;;;;11.70;9.90;;;16.10;99.90;;;;;;5047031;28;20186;-76
2023/06/25 02:15:54;;;;;;;8.77;7.97;;;15.90;99.90;;;;;;5047448;28;20202;-75
2023/06/25 02:18:19;;;;;;;9.63;8.25;;;16.10;1.00;;;;;;5047479;28;20190;-74
2023/06/25 02:20:45;;;;;;;10.30;8.95;;;16.00;99.90;;;;;;5047687;28;20205;-77
2023/06/25 02:23:10;;;;;;;11.05;8.82;;;16.00;99.90;;;;;;5046964;28;20186;-75
2023/06/25 02:25:36;;;;;;;11.60;8.73;;;16.00;26.10;;;;;;5047896;28;20216;-74
2023/06/25 02:28:02;;;;;;;9.93;8.85;;;16.00;99.90;;;;;;5047294;28;20568;-73
2023/06/25 02:30:27;;;;;;;9.00;8.10;;;16.00;99.90;;;;;;5047526;28;20178;-75
2023/06/25 02:32:53;;;;;;;10.85;9.10;;;16.00;56.70;;;;;;5047078;28;20728;-75
2023/06/25 02:35:18;;;;;;;9.90;8.98;;;15.90;99.90;;;;;;5047050;28;20187;-75
2023/06/25 02:37:44;;;;;;;8.63;7.82;;;15.90;1.00;;;;;;5047488;28;20599;-75
2023/06/25 02:40:10;;;;;;;11.23;8.98;;;15.80;1.00;;;;;;5046370;28;20226;-75
2023/06/25 02:42:36;;;;;;;9.75;8.65;;;15.80;1.00;;;;;;5047406;28;20182;-75
2023/06/25 02:45:02;;;;;;;9.13;8.23;;;15.70;99.90;;;;;;5046551;28;20236;-77
2023/06/25 02:47:27;;;;;;;10.63;9.52;;;15.60;99.90;;;;;;5046949;28;20222;-74
2023/06/25 02:49:53;;;;;;;9.48;8.35;;;15.60;1.00;;;;;;5047226;28;20277;-74
2023/06/25 02:52:18;;;;;;;10.02;8.63;;;15.70;1.00;;;;;;5046854;28;20182;-75
2023/06/25 02:54:44;;;;;;;11.43;9.40;;;15.70;1.00;;;;;;5046076;28;20178;-74
2023/06/25 02:57:10;;;;;;;10.15;8.63;;;15.60;1.00;;;;;;5047023;28;20202;-75
2023/06/25 02:59:35;;;;;;;9.57;8.68;;;15.70;1.00;;;;;;5047187;28;20183;-76
2023/06/25 03:02:01;;;;;;;8.95;8.10;;;15.70;99.90;;;;;;5046759;28;20605;-77
2023/06/25 03:04:26;;;;;;;9.23;8.30;;;15.90;90.60;;;;;;5046276;28;20297;-75
2023/06/25 03:06:52;;;;;;;9.52;8.73;;;15.90;1.00;;;;;;5046031;28;20222;-74
2023/06/25 03:09:18;;;;;;;10.27;8.32;;;16.00;99.90;;;;;;5045933;28;20182;-76
2023/06/25 03:11:44;;;;;;;10.35;9.20;;;16.00;99.90;;;;;;5046992;28;20642;-75
2023/06/25 03:14:10;;;;;;;10.73;9.38;;;16.00;99.90;;;;;;5046126;28;20175;-75
2023/06/25 03:16:35;;;;;;;10.45;8.70;;;16.00;99.90;;;;;;5046342;28;20709;-75
2023/06/25 03:19:01;;;;;;;11.18;10.07;;;16.00;99.90;;;;;;5046838;28;20669;-75
2023/06/25 03:21:29;;;;;;;13.65;9.07;;;16.10;99.90;;;;;;5046482;28;20601;-75
2023/06/25 03:23:55;;;;;;;11.10;8.15;;;16.00;99.90;;;;;;5046005;28;20245;-75
2023/06/25 03:26:21;;;;;;;13.48;8.55;;;16.00;1.00;;;;;;5046342;28;20210;-75
2023/06/25 03:28:46;;;;;;;8.75;7.60;;;15.90;1.00;;;;;;5046865;28;20178;-75
2023/06/25 03:31:12;;;;;;;9.88;8.07;;;15.90;1.00;;;;;;5047230;28;20188;-75
2023/06/25 03:33:37;;;;;;;11.73;7.90;;;15.90;1.00;;;;;;5046581;28;20181;-76
2023/06/25 03:36:03;;;;;;;10.90;8.32;;;15.90;1.00;;;;;;5046872;28;20233;-75
2023/06/25 03:38:29;;;;;;;14.68;7.93;;;15.80;1.00;;;;;;5047108;28;20186;-74
2023/06/25 03:40:54;;;;;;;13.75;8.05;;;15.90;1.00;;;;;;5047116;28;20607;-75
2023/06/25 03:43:20;;;;;;;12.02;7.60;;;15.80;1.00;;;;;;5046073;28;20178;-74
2023/06/25 03:45:45;;;;;;;11.48;7.40;;;15.80;1.00;;;;;;5046667;28;20218;-75
2023/06/25 03:48:11;;;;;;;13.27;7.72;;;15.90;1.00;;;;;;5046480;28;20300;-74
2023/06/25 03:50:37;;;;;;;12.38;7.60;;;15.90;1.00;;;;;;5046950;28;20174;-74
2023/06/25 03:53:02;;;;;;;12.48;7.43;;;16.00;99.90;;;;;;5046295;28;20244;-75
2023/06/25 03:55:28;;;;;;;11.63;7.82;;;16.00;99.90;;;;;;5046458;28;20182;-74
2023/06/25 03:58:00;;;;;;;11.02;7.93;;;16.10;99.90;;;;;;5046676;28;20226;-74
2023/06/25 04:00:25;;;;;;;12.15;7.43;;;16.00;99.90;;;;;;5028589;28;20177;-74
2023/06/25 04:02:51;;;;;;;10.18;6.85;;;16.10;1.00;;;;;;5046588;28;20274;-75
2023/06/25 04:05:17;;;;;;;11.82;7.22;;;16.20;1.00;;;;;;5045090;28;20233;-74
2023/06/25 04:07:42;;;;;;;11.05;6.55;;;16.10;99.90;;;;;;5028374;28;20312;-75
2023/06/25 04:10:08;;;;;;;10.43;7.32;;;16.30;99.90;;;;;;5046381;28;20473;-74
2023/06/25 04:12:34;;;;;;;9.15;7.20;;;16.30;99.90;;;;;;5045879;28;20174;-74
2023/06/25 04:15:00;;;;;;;10.00;7.20;;;16.40;99.90;;;;;;5044281;28;20244;-75
2023/06/25 04:17:26;;;;;;;8.52;7.63;;;16.40;99.90;;;;;;5045592;28;20253;-75
2023/06/25 04:19:52;;;;;;;8.38;7.40;;;16.60;1.00;;;;;;5045950;28;20189;-75
2023/06/25 04:22:17;;;;;;;9.00;7.25;;;16.60;1.00;;;;;;5045553;28;20192;-75
2023/06/25 04:24:43;;;;;;;8.68;6.95;;;16.70;1.00;;;;;;5044718;28;20372;-76
2023/06/25 04:27:09;;;;;;;10.65;7.30;;;16.80;1.00;;;;;;5045110;28;20245;-75
2023/06/25 04:29:34;;;;;;;8.80;7.88;;;16.80;1.00;;;;;;5025932;28;20273;-76
2023/06/25 04:32:01;;;;;;;12.02;8.20;;;16.90;1.00;;;;;;5045454;28;20297;-76
2023/06/25 04:34:27;;;;;;;11.13;8.25;;;17.00;1.00;;;;;;5043243;28;20178;-75
2023/06/25 04:36:52;;;;;;;10.82;7.43;;;17.00;1.00;;;;;;5044179;28;20233;-76
2023/06/25 04:39:26;;;;;;;11.02;8.60;;;17.10;1.00;;;;;;5044045;28;20182;-76
2023/06/25 04:41:51;;;;;;;12.20;8.10;;;17.10;1.00;;;;;;5026045;28;20186;-75
2023/06/25 04:44:17;;;;;;;13.73;8.95;;;17.10;99.90;;;;;;5043151;28;20441;-75
2023/06/25 04:46:43;;;;;;;11.93;7.97;;;17.20;99.90;;;;;;5045448;28;20280;-75
2023/06/25 04:49:10;;;;;;;11.20;7.78;;;17.30;99.90;;;;;;5045437;28;20192;-74
2023/06/25 04:51:35;;;;;;;14.45;8.20;;;17.40;99.90;;;;;;5045486;28;20182;-74
2023/06/25 04:54:01;;;;;;;11.88;6.93;;;17.60;99.90;;;;;;5044952;28;20650;-75
2023/06/25 04:56:26;;;;;;;13.65;7.10;;;17.70;67.20;;;;;;5044958;28;20228;-75
2023/06/25 04:58:52;;;;;;;10.10;6.82;;;18.10;40.30;;;;;;5045551;28;20301;-75
2023/06/25 05:01:18;;;;;;;7.82;5.85;;;19.20;1.00;;;;;;5041490;28;20621;-75
2023/06/25 05:03:43;;;;;;;7.85;5.70;;;20.80;99.90;;;;;;5044872;28;20313;-75
2023/06/25 05:06:09;;;;;;;6.43;4.75;;;22.20;1.00;;;;;;5044810;28;20206;-75
2023/06/25 05:08:34;;;;;;;10.48;5.35;;;23.50;1.00;;;;;;5023950;28;20206;-75
2023/06/25 05:11:00;;;;;;;7.13;5.00;;;24.70;1.00;;;;;;5044976;28;20183;-74
2023/06/25 05:13:29;;;;;;;7.78;5.25;;;25.60;1.00;;;;;;5045043;28;20189;-75
2023/06/25 05:15:54;;;;;;;6.57;4.63;;;26.50;1.00;;;;;;5044396;28;20221;-75
2023/06/25 05:18:20;;;;;;;6.78;5.20;;;27.00;1.00;;;;;;5045102;28;20642;-74
2023/06/25 05:20:45;;;;;;;5.63;5.00;;;27.60;1.00;;;;;;5045337;28;20208;-75
2023/06/25 05:23:11;;;;;;;5.80;5.00;;;28.20;1.00;;;;;;5044472;28;20185;-76
2023/06/25 05:25:37;;;;;;;7.30;5.30;;;28.60;1.00;;;;;;5045035;28;20383;-75
2023/06/25 05:28:03;;;;;;;6.38;5.80;;;28.60;1.00;;;;;;5044938;28;20214;-75
2023/06/25 05:30:29;;;;;;;5.50;5.10;;;28.10;1.00;;;;;;5045166;28;20182;-75
2023/06/25 05:32:55;;;;;;;5.30;4.90;;;28.20;1.00;;;;;;5044753;28;20193;-75
2023/06/25 05:35:22;;;;;;;5.10;4.60;;;29.30;1.00;;;;;;5044247;28;20331;-75
2023/06/25 05:37:47;;;;;;;5.93;4.30;;;30.10;1.00;;;;;;5038406;28;20868;-75
2023/06/25 05:40:13;;;;;;;5.20;4.70;;;30.70;1.00;;;;;;5044647;28;20182;-75
2023/06/25 05:42:39;;;;;;;5.78;4.57;;;31.40;1.00;;;;;;5044814;28;20182;-75
2023/06/25 05:45:06;;;;;;;5.90;4.90;;;31.80;1.00;;;;;;5043085;28;20186;-75
2023/06/25 05:47:32;;;;;;;5.40;4.90;;;32.50;1.00;;;;;;5024093;28;20520;-75
2023/06/25 05:49:58;;;;;;;6.95;5.00;;;32.90;1.00;;;;;;5042048;28;20546;-76
2023/06/25 05:52:23;;;;;;;4.78;4.38;;;33.30;1.00;;;;;;5043041;28;20184;-75
2023/06/25 05:54:49;;;;;;;4.20;3.80;;;33.70;1.00;;;;;;5040854;28;20269;-75
2023/06/25 05:57:14;;;;;;;5.53;4.95;;;34.30;1.00;;;;;;5024603;28;20561;-75
2023/06/25 05:59:40;;;;;;;4.20;3.90;;;34.60;1.00;;;;;;5044557;28;20283;-77
2023/06/25 06:02:08;;;;;;;3.95;3.70;;;34.70;1.00;;;;;;5044500;28;20178;-76
2023/06/25 06:04:34;;;;;;;5.07;4.53;;;34.80;1.00;;;;;;5043751;28;20186;-75
2023/06/25 06:06:59;;;;;;;5.13;4.50;;;34.30;1.00;;;;;;5044317;28;20279;-75
2023/06/25 06:09:25;;;;;;;5.22;4.55;;;34.50;1.00;;;;;;5044774;28;20555;-75
2023/06/25 06:11:51;;;;;;;5.43;4.95;;;34.90;1.00;;;;;;5044907;28;20741;-75
2023/06/25 06:14:16;;;;;;;4.40;4.10;;;35.00;1.00;;;;;;5043706;28;20311;-75
2023/06/25 06:16:42;;;;;;;6.03;5.53;;;35.30;1.00;;;;;;5043866;28;20237;-75
2023/06/25 06:19:08;;;;;;;4.43;4.13;;;35.40;1.00;;;;;;5042957;28;20633;-75
2023/06/25 06:21:34;;;;;;;4.45;4.10;;;35.70;1.00;;;;;;5043807;28;20178;-75
2023/06/25 06:24:00;;;;;;;4.88;4.47;;;36.10;1.00;;;;;;5044304;28;20190;-75
2023/06/25 06:26:26;;;;;;;5.40;4.90;;;35.80;1.00;;;;;;5044200;28;20216;-77
2023/06/25 06:28:52;;;;;;;4.80;4.40;;;35.70;1.00;;;;;;5046583;28;20202;-75
2023/06/25 06:31:18;;;;;;;4.25;3.95;;;36.00;1.00;;;;;;5047782;28;20189;-75
2023/06/25 06:33:44;;;;;;;5.03;4.63;;;36.60;1.00;;;;;;5047874;28;20209;-75
2023/06/25 06:36:10;;;;;;;4.60;4.20;;;36.50;1.00;;;;;;5047043;28;20316;-75
2023/06/25 06:38:35;;;;;;;4.35;3.95;;;36.90;1.00;;;;;;5047969;28;20185;-76
2023/06/25 06:41:01;;;;;;;5.50;4.47;;;37.30;1.00;;;;;;5048213;28;20193;-75
2023/06/25 06:43:26;;;;;;;4.38;4.07;;;37.60;1.00;;;;;;5047481;28;20740;-76
2023/06/25 06:45:52;;;;;;;4.82;4.43;;;37.40;1.00;;;;;;5047460;28;20642;-75
2023/06/25 06:48:17;;;;;;;6.65;4.72;;;37.50;1.00;;;;;;5044281;28;20218;-75
2023/06/25 06:50:43;;;;;;;4.03;3.70;;;37.50;1.00;;;;;;5047050;28;20192;-75
2023/06/25 06:53:09;;;;;;;4.22;3.83;;;37.10;1.00;;;;;;5044855;28;20197;-75
2023/06/25 06:55:34;;;;;;;4.05;3.75;;;37.60;1.00;;;;;;5045788;28;20177;-76
2023/06/25 06:58:00;;;;;;;4.07;3.67;;;37.80;1.00;;;;;;5047181;28;20212;-75
2023/06/25 07:00:26;;;;;;;4.18;3.88;;;38.30;1.00;;;;;;5046668;28;20348;-76
2023/06/25 07:02:55;;;;;;;4.43;4.07;;;38.50;1.00;;;;;;5047034;28;20221;-75
2023/06/25 07:08:08;;;;;;;4.57;4.18;;;39.20;1.00;;;;;;5010248;26;20232;-76
2023/06/25 07:10:39;;;;;;;4.47;4.07;;;39.30;1.00;;;;;;5066575;28;20679;-75
2023/06/25 07:13:07;;;;;;;4.40;4.10;;;39.90;1.00;;;;;;5067339;28;20199;-76
2023/06/25 07:16:08;;;;;;;4.07;3.78;;;39.10;1.00;;;;;;5065673;28;20173;-78
2023/06/25 07:18:33;;;;;;;4.70;4.25;;;39.50;1.00;;;;;;5047148;28;20267;-76
2023/06/25 07:20:59;;;;;;;5.00;4.35;;;38.60;1.00;;;;;;5053137;28;20182;-76
2023/06/25 07:24:23;;;;;;;4.78;3.90;;;39.40;1.00;;;;;;5045995;28;20178;-78
2023/06/25 07:27:07;;;;;;;4.72;4.20;;;39.10;1.00;;;;;;5053566;28;20201;-79
2023/06/25 07:29:38;;;;;;;4.28;3.88;;;39.00;1.00;;;;;;5051757;28;20247;-75
2023/06/25 07:32:07;;;;;;;4.70;4.30;;;38.50;1.00;;;;;;5054256;28;20236;-76
2023/06/25 07:34:35;;;;;;;4.32;4.03;;;37.10;1.00;;;;;;5051834;28;20272;-75
2023/06/25 07:37:01;;;;;;;4.35;3.95;;;35.30;1.00;;;;;;5056130;28;20291;-76
2023/06/25 07:39:33;;;;;;;5.65;4.20;;;33.50;1.00;;;;;;5056225;28;20284;-76
2023/06/25 07:41:59;;;;;;;4.80;4.50;;;32.20;1.00;;;;;;5054926;28;21111;-78
2023/06/25 07:44:28;;;;;;;5.00;4.60;;;31.40;99.90;;;;;;5058295;28;20208;-74
2023/06/25 07:46:54;;;;;;;5.18;4.78;;;30.70;99.90;;;;;;5053916;28;20220;-75
2023/06/25 07:49:19;;;;;;;4.72;4.30;;;29.40;99.90;;;;;;5049355;28;20186;-75
2023/06/25 07:51:52;;;;;;;4.28;3.88;;;29.20;99.90;;;;;;5058392;28;20193;-75
2023/06/25 07:54:18;;;;;;;5.07;4.60;;;28.60;99.90;;;;;;5050271;28;20273;-75
2023/06/25 07:56:44;;;;;;;4.88;4.47;;;28.40;99.90;;;;;;5056981;28;20289;-75
2023/06/25 07:59:13;;;;;;;4.82;4.50;;;28.20;99.90;;;;;;5055202;28;20264;-75
2023/06/25 08:01:39;;;;;;;4.97;4.57;;;27.30;99.90;;;;;;5055144;28;20178;-76
2023/06/25 08:04:05;;;;;;;5.10;4.60;;;26.90;99.90;;;;;;5037668;28;20231;-75
2023/06/25 08:06:33;;;;;;;4.70;4.32;;;26.90;99.90;;;;;;5050665;28;20321;-75
2023/06/25 08:08:58;;;;;;;4.90;4.50;;;26.80;99.90;;;;;;5054186;28;20185;-75
2023/06/25 08:11:24;;;;;;;5.43;4.93;;;26.70;99.90;;;;;;5055274;28;20235;-76
2023/06/25 08:13:50;;;;;;;4.72;4.22;;;26.70;99.90;;;;;;5054953;28;20190;-76
2023/06/25 08:16:15;;;;;;;4.95;4.53;;;26.40;99.90;;;;;;5052163;28;20687;-75
2023/06/25 08:18:41;;;;;;;5.78;4.97;;;26.60;99.90;;;;;;5048523;28;20751;-76
2023/06/25 08:21:07;;;;;;;4.68;4.28;;;26.30;99.90;;;;;;5054726;28;20177;-76
2023/06/25 08:23:33;;;;;;;5.32;4.18;;;26.30;99.90;;;;;;5049043;28;20228;-75
2023/06/25 08:25:58;;;;;;;5.25;4.75;;;26.20;99.90;;;;;;5054713;28;20209;-74
2023/06/25 08:28:24;;;;;;;4.72;4.32;;;26.40;99.90;;;;;;5052434;28;20519;-75
2023/06/25 08:30:49;;;;;;;6.80;4.93;;;26.20;99.90;;;;;;5047283;28;20174;-74
2023/06/25 08:33:15;;;;;;;4.88;4.47;;;26.40;99.90;;;;;;5051176;28;20190;-75
2023/06/25 08:35:41;;;;;;;5.05;4.65;;;26.50;99.90;;;;;;5055201;28;20205;-74
2023/06/25 08:38:06;;;;;;;5.15;4.75;;;26.60;99.90;;;;;;5053484;28;20257;-75
2023/06/25 08:40:34;;;;;;;5.20;4.70;;;26.50;99.90;;;;;;5050166;28;20598;-75
2023/06/25 08:43:00;;;;;;;5.28;4.85;;;26.10;99.90;;;;;;5049576;28;20198;-75
2023/06/25 08:45:26;;;;;;;5.57;5.07;;;26.30;99.90;;;;;;5035430;28;20195;-75
2023/06/25 08:47:58;;;;;;;4.78;4.47;;;26.30;99.90;;;;;;5043712;28;20205;-74
2023/06/25 08:50:24;;;;;;;5.20;4.80;;;26.50;99.90;;;;;;5050986;28;20193;-75
2023/06/25 08:52:51;;;;;;;5.20;4.70;;;26.50;99.90;;;;;;5052390;28;20657;-74
2023/06/25 08:55:19;;;;;;;5.18;4.75;;;26.60;99.90;;;;;;5049503;28;20201;-74
2023/06/25 08:57:45;;;;;;;5.28;4.88;;;26.50;99.90;;;;;;5053012;28;20229;-73
2023/06/25 09:00:13;;;;;;;5.72;4.70;;;26.40;99.90;;;;;;5058132;28;20271;-74
2023/06/25 09:02:38;;;;;;;5.03;4.63;;;26.50;99.90;;;;;;5049909;28;20584;-74
2023/06/25 09:05:10;;;;;;;5.00;4.60;;;26.40;99.90;;;;;;5049140;28;20192;-74
2023/06/25 09:07:43;;;;;;;5.45;4.97;;;26.30;99.90;;;;;;5049622;28;20217;-73
2023/06/25 09:10:09;;;;;;;5.47;4.60;;;26.40;99.90;;;;;;5054616;28;20269;-74
2023/06/25 09:12:35;;;;;;;5.72;4.78;;;26.30;99.90;;;;;;5053030;28;20181;-74
2023/06/25 09:15:02;;;;;;;4.32;4.03;;;26.50;99.90;;;;;;5053957;28;20182;-73
2023/06/25 09:17:27;;;;;;;4.38;4.00;;;26.50;99.90;;;;;;5043743;28;20210;-73
2023/06/25 09:19:53;;;;;;;5.00;4.47;;;26.50;99.90;;;;;;5048110;28;20193;-73
2023/06/25 09:22:19;;;;;;;4.10;3.80;;;26.30;99.90;;;;;;5055329;28;20201;-73
2023/06/25 09:24:47;;;;;;;4.55;4.10;;;26.20;99.90;;;;;;5054044;28;20269;-75
2023/06/25 09:27:13;;;;;;;4.68;4.18;;;26.30;99.90;;;;;;5056992;28;20205;-74
2023/06/25 09:29:39;;;;;;;4.43;4.03;;;26.40;99.90;;;;;;5049144;28;20178;-73
2023/06/25 09:32:09;;;;;;;4.53;4.13;;;26.40;99.90;;;;;;5048036;28;20199;-72
2023/06/25 09:34:36;;;;;;;4.25;3.92;;;26.40;99.90;;;;;;5050033;28;20185;-74
2023/06/25 09:37:03;;;;;;;4.25;3.80;;;26.30;99.90;;;;;;5055040;28;20202;-74
2023/06/25 09:39:29;;;;;;;4.43;4.03;;;26.20;99.90;;;;;;5049107;28;20193;-72
2023/06/25 09:41:56;;;;;;;4.05;3.75;;;26.40;99.90;;;;;;5052961;28;20285;-74
2023/06/25 09:44:25;;;;;;;4.10;3.70;;;26.50;99.90;;;;;;5052344;28;20177;-74
2023/06/25 09:46:57;;;;;;;4.82;4.18;;;26.50;99.90;;;;;;5051132;28;20194;-76
2023/06/25 09:49:28;;;;;;;4.00;3.70;;;26.60;99.90;;;;;;5053773;28;20209;-74
2023/06/25 09:52:04;;;;;;;4.00;3.70;;;26.80;99.90;;;;;;5047686;28;20188;-74
2023/06/25 09:54:30;;;;;;;3.80;3.50;;;26.70;99.90;;;;;;5046541;28;20531;-74
2023/06/25 09:57:03;;;;;;;3.78;3.47;;;26.80;99.90;;;;;;5053526;28;20213;-75
2023/06/25 09:59:29;;;;;;;4.00;3.70;;;26.70;99.90;;;;;;5050398;28;20332;-75
2023/06/25 10:01:55;;;;;;;4.13;3.83;;;26.80;99.90;;;;;;5034574;28;20705;-74
2023/06/25 10:04:21;;;;;;;4.28;3.67;;;26.90;99.90;;;;;;5058027;28;21252;-76
2023/06/25 10:06:48;;;;;;;3.97;3.67;;;27.00;99.90;;;;;;5055998;28;20287;-75
2023/06/25 10:09:14;;;;;;;3.65;3.35;;;26.90;99.90;;;;;;5051240;28;20178;-76
2023/06/25 10:11:54;;;;;;;4.97;3.97;;;26.90;99.90;;;;;;5056085;28;20193;-74
2023/06/25 10:14:21;;;;;;;3.90;3.60;;;26.70;99.90;;;;;;5058427;28;20182;-75
2023/06/25 10:16:56;;;;;;;4.20;3.80;;;26.80;99.90;;;;;;5060169;28;20197;-76
2023/06/25 10:19:24;;;;;;;5.13;3.63;;;26.90;99.90;;;;;;5028256;28;20573;-77
2023/06/25 10:22:13;;;;;;;4.15;3.80;;;26.90;99.90;;;;;;5055265;28;20185;-76
2023/06/25 10:24:50;;;;;;;3.67;3.38;;;27.00;99.90;;;;;;5040208;28;20653;-75
2023/06/25 10:27:42;;;;;;;3.65;3.35;;;27.20;99.90;;;;;;5052485;28;20213;-74
2023/06/25 10:30:15;;;;;;;3.85;3.55;;;27.20;99.90;;;;;;5048170;28;20197;-75
2023/06/25 10:32:42;;;;;;;3.97;3.58;;;27.30;99.90;;;;;;5042390;28;20186;-74
2023/06/25 10:35:08;;;;;;;4.82;3.80;;;27.20;99.90;;;;;;5048350;28;20186;-74
2023/06/25 10:37:35;;;;;;;3.60;3.30;;;27.40;99.90;;;;;;5052182;28;20276;-75
2023/06/25 10:40:05;;;;;;;3.50;3.20;;;27.30;99.90;;;;;;5051962;28;20182;-73
2023/06/25 10:42:31;;;;;;;3.90;3.60;;;27.40;99.90;;;;;;5052863;28;20182;-76
2023/06/25 10:44:59;;;;;;;3.83;3.53;;;27.50;99.90;;;;;;5053038;28;20197;-74
2023/06/25 10:47:24;;;;;;;3.60;3.30;;;27.30;99.90;;;;;;5055227;28;20627;-76
2023/06/25 10:49:50;;;;;;;4.15;3.80;;;27.20;99.90;;;;;;5054970;28;20244;-77
2023/06/25 10:52:18;;;;;;;4.22;3.83;;;27.00;99.90;;;;;;5050629;28;21131;-73
2023/06/25 10:54:43;;;;;;;3.50;3.05;;;27.30;99.90;;;;;;5055013;28;20186;-73
2023/06/25 10:57:11;;;;;;;5.63;3.38;;;27.40;99.90;;;;;;5054458;28;20206;-75
2023/06/25 10:59:41;;;;;;;3.75;3.45;;;27.40;99.90;;;;;;5037343;28;20174;-76
2023/06/25 11:02:10;;;;;;;5.13;3.45;;;27.30;99.90;;;;;;5058217;28;20227;-74
2023/06/25 11:04:35;;;;;;;3.95;3.60;;;27.10;99.90;;;;;;5052280;28;20697;-74
2023/06/25 11:07:01;;;;;;;3.50;3.20;;;27.40;99.90;;;;;;5036572;28;20324;-74
2023/06/25 11:09:28;;;;;;;3.70;3.40;;;27.50;99.90;;;;;;5053291;28;20193;-74
2023/06/25 11:11:54;;;;;;;3.75;3.45;;;27.70;99.90;;;;;;5055144;28;20217;-74
2023/06/25 11:14:19;;;;;;;3.88;3.50;;;27.70;99.90;;;;;;5054265;28;20213;-74
2023/06/25 11:16:48;;;;;;;3.65;3.35;;;27.70;99.90;;;;;;5042501;28;20652;-74
2023/06/25 11:19:13;;;;;;;4.05;3.65;;;27.50;99.90;;;;;;5054238;28;20284;-74
2023/06/25 11:21:39;;;;;;;3.55;3.25;;;27.50;99.90;;;;;;5038234;28;20209;-73
2023/06/25 11:24:09;;;;;;;3.90;3.60;;;27.50;99.90;;;;;;5053864;28;20181;-75
2023/06/25 11:26:42;;;;;;;3.63;3.33;;;27.60;99.90;;;;;;5061107;28;20216;-73
2023/06/25 11:29:09;;;;;;;3.60;3.30;;;27.70;99.90;;;;;;5038988;28;20766;-74
2023/06/25 11:31:48;;;;;;;3.95;3.55;;;27.90;99.90;;;;;;5052332;28;20268;-76
2023/06/25 11:34:24;;;;;;;3.60;3.30;;;27.80;99.90;;;;;;5057963;28;20182;-74
2023/06/25 11:36:50;;;;;;;3.95;3.58;;;27.90;99.90;;;;;;5056754;28;20219;-74
2023/06/25 11:39:16;;;;;;;3.80;3.50;;;27.90;99.90;;;;;;5056100;28;20595;-76
2023/06/25 11:41:45;;;;;;;3.55;3.30;;;28.00;99.90;;;;;;5055867;28;20181;-73
2023/06/25 11:44:21;;;;;;;3.88;3.47;;;27.90;99.90;;;;;;5056379;28;20519;-76
2023/06/25 11:46:51;;;;;;;3.75;3.22;;;27.90;99.90;;;;;;5057251;28;20189;-75
2023/06/25 11:49:18;;;;;;;3.53;3.22;;;27.80;99.90;;;;;;5052319;28;20178;-74
2023/06/25 11:51:44;;;;;;;3.47;3.20;;;27.70;99.90;;;;;;5054811;28;20170;-74
2023/06/25 11:54:09;;;;;;;3.40;3.10;;;27.70;99.90;;;;;;5052388;28;20276;-75
2023/06/25 11:56:35;;;;;;;3.63;3.33;;;27.90;99.90;;;;;;5052799;28;20630;-74
2023/06/25 11:59:01;;;;;;;4.00;3.60;;;27.90;99.90;;;;;;5050463;28;20214;-73
2023/06/25 12:01:29;;;;;;;3.55;3.25;;;28.00;99.90;;;;;;5052509;28;20182;-75
2023/06/25 12:03:55;;;;;;;3.33;3.00;;;28.00;99.90;;;;;;5046092;28;20190;-74
2023/06/25 12:06:20;;;;;;;4.40;3.50;;;28.00;99.90;;;;;;5034815;28;20213;-74
2023/06/25 12:08:46;;;;;;;3.88;3.53;;;28.10;99.90;;;;;;5054872;28;20182;-73
2023/06/25 12:11:12;;;;;;;3.47;3.17;;;28.30;99.90;;;;;;5054597;28;20182;-73
2023/06/25 12:13:37;;;;;;;3.60;3.30;;;28.20;99.90;;;;;;5049992;28;20185;-75
2023/06/25 12:16:03;;;;;;;3.38;3.17;;;28.20;99.90;;;;;;5048860;28;20218;-79
2023/06/25 12:18:28;;;;;;;3.47;3.17;;;28.30;99.90;;;;;;5052106;28;20937;-75
2023/06/25 12:20:54;;;;;;;3.40;3.20;;;28.10;99.90;;;;;;5055054;28;20197;-75
2023/06/25 12:23:20;;;;;;;3.97;3.53;;;28.00;99.90;;;;;;5053276;28;20170;-77
2023/06/25 12:25:45;;;;;;;3.92;3.50;;;27.90;99.90;;;;;;5050537;28;20304;-76
2023/06/25 12:28:11;;;;;;;5.18;3.40;;;27.80;99.90;;;;;;5051268;28;20181;-76
2023/06/25 12:30:36;;;;;;;3.92;3.42;;;27.70;99.90;;;;;;5053009;28;20259;-74
2023/06/25 12:33:02;;;;;;;3.60;3.30;;;27.60;99.90;;;;;;5056352;28;20950;-77
2023/06/25 12:35:28;;;;;;;4.05;3.20;;;27.50;99.90;;;;;;5054181;28;20194;-75
2023/06/25 12:37:54;;;;;;;3.72;3.42;;;27.50;99.90;;;;;;5053499;28;20240;-74
2023/06/25 12:40:19;;;;;;;3.40;3.20;;;27.60;99.90;;;;;;5052937;28;20220;-75
2023/06/25 12:42:45;;;;;;;3.33;3.03;;;27.60;99.90;;;;;;5056524;28;20182;-76
2023/06/25 12:45:11;;;;;;;3.90;3.60;;;27.90;99.90;;;;;;5052291;28;20182;-77
2023/06/25 12:47:36;;;;;;;3.83;3.53;;;28.00;99.90;;;;;;5055095;28;20249;-77
2023/06/25 12:50:02;;;;;;;4.03;3.67;;;27.90;99.90;;;;;;5035436;28;20190;-75